sensor_id;sensor_type;location;lat;lon;timestamp;temperature;humidity
21759;DHT22;11041;50.854;20.580;2023-02-08T00:02:00;-0.40;99.90
21759;DHT22;11041;50.854;20.580;2023-02-08T00:04:26;-0.40;99.90
21759;DHT22;11041;50.854;20.580;2023-02-08T00:06:53;-0.30;99.90
21759;DHT22;11041;50.854;20.580;2023-02-08T00:09:19;-0.40;99.90
21759;DHT22;11041;50.854;20.580;2023-02-08T00:14:13;-0.30;99.90
21759;DHT22;11041;50.854;20.580;2023-02-08T00:19:06;-0.20;99.90
21759;DHT22;11041;50.854;20.580;2023-02-08T00:21:32;-0.30;99.90
21759;DHT22;11041;50.854;20.580;2023-02-08T00:23:59;-0.20;99.90
21759;DHT22;11041;50.854;20.580;2023-02-08T00:26:26;0.00;99.90
21759;DHT22;11041;50.854;20.580;2023-02-08T00:31:19;-0.30;99.90
21759;DHT22;11041;50.854;20.580;2023-02-08T00:33:45;-0.30;99.90
21759;DHT22;11041;50.854;20.580;2023-02-08T00:36:12;-0.30;99.90
21759;DHT22;11041;50.854;20.580;2023-02-08T00:38:39;-0.30;99.90
21759;DHT22;11041;50.854;20.580;2023-02-08T00:41:05;-0.40;99.90
21759;DHT22;11041;50.854;20.580;2023-02-08T00:43:32;-0.30;99.90
21759;DHT22;11041;50.854;20.580;2023-02-08T00:45:59;-0.30;99.90
21759;DHT22;11041;50.854;20.580;2023-02-08T00:48:26;-0.30;99.90
21759;DHT22;11041;50.854;20.580;2023-02-08T00:50:58;-0.30;99.90
21759;DHT22;11041;50.854;20.580;2023-02-08T00:53:27;-0.30;99.90
21759;DHT22;11041;50.854;20.580;2023-02-08T00:55:54;-0.30;99.90
21759;DHT22;11041;50.854;20.580;2023-02-08T00:58:21;-0.30;99.90
21759;DHT22;11041;50.854;20.580;2023-02-08T01:00:52;-0.30;99.90
21759;DHT22;11041;50.854;20.580;2023-02-08T01:03:21;-0.30;99.90
21759;DHT22;11041;50.854;20.580;2023-02-08T01:05:48;-0.20;99.90
21759;DHT22;11041;50.854;20.580;2023-02-08T01:08:15;-0.10;99.90
21759;DHT22;11041;50.854;20.580;2023-02-08T01:10:44;-0.40;99.90
21759;DHT22;11041;50.854;20.580;2023-02-08T01:13:12;-0.30;99.90
21759;DHT22;11041;50.854;20.580;2023-02-08T01:15:38;-0.20;99.90
21759;DHT22;11041;50.854;20.580;2023-02-08T01:18:05;-0.20;99.90
21759;DHT22;11041;50.854;20.580;2023-02-08T01:20:34;-0.10;99.90
21759;DHT22;11041;50.854;20.580;2023-02-08T01:23:03;-0.10;99.90
21759;DHT22;11041;50.854;20.580;2023-02-08T01:25:29;-0.10;99.90
21759;DHT22;11041;50.854;20.580;2023-02-08T01:27:56;-0.20;99.90
21759;DHT22;11041;50.854;20.580;2023-02-08T01:30:23;-0.40;99.90
21759;DHT22;11041;50.854;20.580;2023-02-08T01:32:49;-0.70;99.90
21759;DHT22;11041;50.854;20.580;2023-02-08T01:35:15;-0.70;99.90
21759;DHT22;11041;50.854;20.580;2023-02-08T01:37:42;-0.80;99.90
21759;DHT22;11041;50.854;20.580;2023-02-08T01:40:09;-0.60;99.90
21759;DHT22;11041;50.854;20.580;2023-02-08T01:42:36;-0.50;99.90
21759;DHT22;11041;50.854;20.580;2023-02-08T01:45:22;-0.50;99.90
21759;DHT22;11041;50.854;20.580;2023-02-08T01:47:56;0.20;99.90
21759;DHT22;11041;50.854;20.580;2023-02-08T01:50:32;-0.20;99.90
21759;DHT22;11041;50.854;20.580;2023-02-08T01:53:03;-0.10;99.90
21759;DHT22;11041;50.854;20.580;2023-02-08T01:55:33;-0.10;99.90
21759;DHT22;11041;50.854;20.580;2023-02-08T01:58:06;0.10;99.90
21759;DHT22;11041;50.854;20.580;2023-02-08T02:00:36;-0.10;99.90
21759;DHT22;11041;50.854;20.580;2023-02-08T02:03:03;0.00;99.90
21759;DHT22;11041;50.854;20.580;2023-02-08T02:05:51;0.00;99.90
21759;DHT22;11041;50.854;20.580;2023-02-08T02:08:32;0.10;99.90
21759;DHT22;11041;50.854;20.580;2023-02-08T02:10:59;0.00;99.90
21759;DHT22;11041;50.854;20.580;2023-02-08T02:13:26;0.10;99.90
21759;DHT22;11041;50.854;20.580;2023-02-08T02:15:54;-0.10;99.90
21759;DHT22;11041;50.854;20.580;2023-02-08T02:18:29;0.20;99.90
21759;DHT22;11041;50.854;20.580;2023-02-08T02:42:22;-0.40;99.90
21759;DHT22;11041;50.854;20.580;2023-02-08T02:45:39;-0.40;99.90
21759;DHT22;11041;50.854;20.580;2023-02-08T02:48:19;-0.30;99.90
21759;DHT22;11041;50.854;20.580;2023-02-08T02:51:13;-0.60;99.90
21759;DHT22;11041;50.854;20.580;2023-02-08T02:54:01;-0.40;99.90
21759;DHT22;11041;50.854;20.580;2023-02-08T02:56:38;-0.50;99.90
21759;DHT22;11041;50.854;20.580;2023-02-08T02:59:10;-0.40;99.90
21759;DHT22;11041;50.854;20.580;2023-02-08T03:01:40;-0.40;99.90
21759;DHT22;11041;50.854;20.580;2023-02-08T03:30:19;0.20;99.90
21759;DHT22;11041;50.854;20.580;2023-02-08T03:33:15;-0.10;99.90
21759;DHT22;11041;50.854;20.580;2023-02-08T03:36:02;0.20;99.90
21759;DHT22;11041;50.854;20.580;2023-02-08T03:38:39;0.10;99.90
21759;DHT22;11041;50.854;20.580;2023-02-08T03:41:13;-0.30;99.90
21759;DHT22;11041;50.854;20.580;2023-02-08T03:43:51;0.40;99.90
21759;DHT22;11041;50.854;20.580;2023-02-08T03:46:28;0.20;99.90
21759;DHT22;11041;50.854;20.580;2023-02-08T03:49:02;0.00;99.90
21759;DHT22;11041;50.854;20.580;2023-02-08T03:51:37;0.20;99.90
21759;DHT22;11041;50.854;20.580;2023-02-08T03:54:16;0.10;99.90
21759;DHT22;11041;50.854;20.580;2023-02-08T03:57:07;0.20;99.90
21759;DHT22;11041;50.854;20.580;2023-02-08T03:59:43;0.10;99.90
21759;DHT22;11041;50.854;20.580;2023-02-08T04:02:17;0.20;99.90
21759;DHT22;11041;50.854;20.580;2023-02-08T04:04:48;0.20;99.90
21759;DHT22;11041;50.854;20.580;2023-02-08T04:07:17;0.10;99.90
21759;DHT22;11041;50.854;20.580;2023-02-08T04:09:45;0.00;99.90
21759;DHT22;11041;50.854;20.580;2023-02-08T04:12:12;0.10;99.90
21759;DHT22;11041;50.854;20.580;2023-02-08T04:14:38;0.10;99.90
21759;DHT22;11041;50.854;20.580;2023-02-08T04:17:05;0.20;99.90
21759;DHT22;11041;50.854;20.580;2023-02-08T04:19:31;0.00;99.90
21759;DHT22;11041;50.854;20.580;2023-02-08T04:21:58;0.10;99.90
21759;DHT22;11041;50.854;20.580;2023-02-08T04:24:24;0.00;99.90
21759;DHT22;11041;50.854;20.580;2023-02-08T04:26:51;0.40;99.90
21759;DHT22;11041;50.854;20.580;2023-02-08T04:29:18;0.20;99.90
21759;DHT22;11041;50.854;20.580;2023-02-08T04:31:44;0.20;99.90
21759;DHT22;11041;50.854;20.580;2023-02-08T04:34:11;0.20;99.90
21759;DHT22;11041;50.854;20.580;2023-02-08T04:36:37;0.00;99.90
21759;DHT22;11041;50.854;20.580;2023-02-08T04:39:03;0.40;99.90
21759;DHT22;11041;50.854;20.580;2023-02-08T04:41:30;0.20;99.90
21759;DHT22;11041;50.854;20.580;2023-02-08T04:43:56;0.20;99.90
21759;DHT22;11041;50.854;20.580;2023-02-08T04:46:23;0.20;99.90
21759;DHT22;11041;50.854;20.580;2023-02-08T04:48:49;0.00;99.90
21759;DHT22;11041;50.854;20.580;2023-02-08T04:51:16;-0.10;99.90
21759;DHT22;11041;50.854;20.580;2023-02-08T04:53:43;0.10;99.90
21759;DHT22;11041;50.854;20.580;2023-02-08T04:56:09;0.10;99.90
21759;DHT22;11041;50.854;20.580;2023-02-08T04:58:35;0.20;99.90
21759;DHT22;11041;50.854;20.580;2023-02-08T05:01:06;0.30;99.90
21759;DHT22;11041;50.854;20.580;2023-02-08T05:03:36;0.30;99.90
21759;DHT22;11041;50.854;20.580;2023-02-08T05:06:02;0.20;99.90
21759;DHT22;11041;50.854;20.580;2023-02-08T05:08:29;-0.10;99.90
21759;DHT22;11041;50.854;20.580;2023-02-08T05:13:22;0.20;99.90
21759;DHT22;11041;50.854;20.580;2023-02-08T05:18:16;0.20;99.90
21759;DHT22;11041;50.854;20.580;2023-02-08T05:20:42;0.20;99.90
21759;DHT22;11041;50.854;20.580;2023-02-08T05:25:39;0.00;99.90
21759;DHT22;11041;50.854;20.580;2023-02-08T05:28:07;-0.10;99.90
21759;DHT22;11041;50.854;20.580;2023-02-08T05:30:33;-0.30;99.90
21759;DHT22;11041;50.854;20.580;2023-02-08T05:33:00;0.00;99.90
21759;DHT22;11041;50.854;20.580;2023-02-08T05:35:26;0.00;99.90
21759;DHT22;11041;50.854;20.580;2023-02-08T05:37:53;-0.10;99.90
21759;DHT22;11041;50.854;20.580;2023-02-08T05:40:19;-0.20;99.90
21759;DHT22;11041;50.854;20.580;2023-02-08T05:45:14;-0.20;99.90
21759;DHT22;11041;50.854;20.580;2023-02-08T05:47:41;0.10;99.90
21759;DHT22;11041;50.854;20.580;2023-02-08T05:50:09;-0.10;99.90
21759;DHT22;11041;50.854;20.580;2023-02-08T05:52:35;-0.10;99.90
21759;DHT22;11041;50.854;20.580;2023-02-08T05:55:02;-0.10;99.90
21759;DHT22;11041;50.854;20.580;2023-02-08T05:57:29;-0.10;99.90
21759;DHT22;11041;50.854;20.580;2023-02-08T05:59:55;-0.20;99.90
21759;DHT22;11041;50.854;20.580;2023-02-08T06:02:22;-0.30;99.90
21759;DHT22;11041;50.854;20.580;2023-02-08T06:04:48;-0.20;99.90
21759;DHT22;11041;50.854;20.580;2023-02-08T06:07:15;-0.20;99.90
21759;DHT22;11041;50.854;20.580;2023-02-08T06:09:42;-0.30;99.90
21759;DHT22;11041;50.854;20.580;2023-02-08T06:12:08;-0.30;99.90
21759;DHT22;11041;50.854;20.580;2023-02-08T06:14:35;-0.40;99.90
21759;DHT22;11041;50.854;20.580;2023-02-08T06:17:02;-0.40;99.90
21759;DHT22;11041;50.854;20.580;2023-02-08T06:19:28;-0.40;99.90
21759;DHT22;11041;50.854;20.580;2023-02-08T06:21:54;-0.50;99.90
21759;DHT22;11041;50.854;20.580;2023-02-08T06:24:20;-0.50;99.90
21759;DHT22;11041;50.854;20.580;2023-02-08T06:26:47;-0.60;99.90
21759;DHT22;11041;50.854;20.580;2023-02-08T06:29:14;-0.70;99.90
21759;DHT22;11041;50.854;20.580;2023-02-08T06:31:40;-0.70;99.90
21759;DHT22;11041;50.854;20.580;2023-02-08T06:34:07;-0.70;99.90
21759;DHT22;11041;50.854;20.580;2023-02-08T06:36:33;-0.70;99.90
21759;DHT22;11041;50.854;20.580;2023-02-08T06:39:00;-0.70;99.90
21759;DHT22;11041;50.854;20.580;2023-02-08T06:41:28;-0.60;99.90
21759;DHT22;11041;50.854;20.580;2023-02-08T06:43:56;-0.50;99.90
21759;DHT22;11041;50.854;20.580;2023-02-08T06:46:24;-0.50;99.90
21759;DHT22;11041;50.854;20.580;2023-02-08T06:48:51;-0.50;99.90
21759;DHT22;11041;50.854;20.580;2023-02-08T06:51:17;-0.60;99.90
21759;DHT22;11041;50.854;20.580;2023-02-08T06:53:43;-0.70;99.90
21759;DHT22;11041;50.854;20.580;2023-02-08T06:56:10;-0.60;99.90
21759;DHT22;11041;50.854;20.580;2023-02-08T06:58:37;-0.60;99.90
21759;DHT22;11041;50.854;20.580;2023-02-08T07:01:13;-0.60;99.90
21759;DHT22;11041;50.854;20.580;2023-02-08T07:03:52;-0.50;99.90
21759;DHT22;11041;50.854;20.580;2023-02-08T07:06:19;-0.40;99.90
21759;DHT22;11041;50.854;20.580;2023-02-08T07:08:46;-0.40;99.90
21759;DHT22;11041;50.854;20.580;2023-02-08T07:11:15;-0.30;99.90
21759;DHT22;11041;50.854;20.580;2023-02-08T07:13:49;-0.30;99.90
21759;DHT22;11041;50.854;20.580;2023-02-08T07:16:18;-0.30;99.90
21759;DHT22;11041;50.854;20.580;2023-02-08T07:18:45;-0.30;99.90
21759;DHT22;11041;50.854;20.580;2023-02-08T07:21:12;-0.20;99.90
21759;DHT22;11041;50.854;20.580;2023-02-08T07:23:39;-0.10;99.90
21759;DHT22;11041;50.854;20.580;2023-02-08T07:26:08;-0.20;99.90
21759;DHT22;11041;50.854;20.580;2023-02-08T07:28:37;-0.20;99.90
21759;DHT22;11041;50.854;20.580;2023-02-08T07:31:09;-0.40;99.90
21759;DHT22;11041;50.854;20.580;2023-02-08T07:33:38;-0.30;99.90
21759;DHT22;11041;50.854;20.580;2023-02-08T07:36:06;-0.10;99.90
21759;DHT22;11041;50.854;20.580;2023-02-08T07:38:34;0.00;99.90
21759;DHT22;11041;50.854;20.580;2023-02-08T07:41:08;0.10;99.90
21759;DHT22;11041;50.854;20.580;2023-02-08T07:43:37;0.20;99.90
21759;DHT22;11041;50.854;20.580;2023-02-08T07:46:07;0.20;99.90
21759;DHT22;11041;50.854;20.580;2023-02-08T07:48:35;0.20;99.90
21759;DHT22;11041;50.854;20.580;2023-02-08T07:51:02;0.30;99.90
21759;DHT22;11041;50.854;20.580;2023-02-08T07:53:30;0.40;99.90
21759;DHT22;11041;50.854;20.580;2023-02-08T07:55:57;0.50;99.90
21759;DHT22;11041;50.854;20.580;2023-02-08T07:58:25;0.50;99.90
21759;DHT22;11041;50.854;20.580;2023-02-08T08:00:51;0.60;99.90
21759;DHT22;11041;50.854;20.580;2023-02-08T08:03:18;0.60;99.90
21759;DHT22;11041;50.854;20.580;2023-02-08T08:05:45;0.60;99.90
21759;DHT22;11041;50.854;20.580;2023-02-08T08:08:12;0.60;99.90
21759;DHT22;11041;50.854;20.580;2023-02-08T08:10:39;0.60;99.90
21759;DHT22;11041;50.854;20.580;2023-02-08T08:13:05;0.70;99.90
21759;DHT22;11041;50.854;20.580;2023-02-08T08:15:32;0.80;99.90
21759;DHT22;11041;50.854;20.580;2023-02-08T08:17:58;0.90;99.90
21759;DHT22;11041;50.854;20.580;2023-02-08T08:20:25;0.90;99.90
21759;DHT22;11041;50.854;20.580;2023-02-08T08:22:52;0.90;99.90
21759;DHT22;11041;50.854;20.580;2023-02-08T08:25:19;0.90;99.90
21759;DHT22;11041;50.854;20.580;2023-02-08T08:27:45;1.00;99.90
21759;DHT22;11041;50.854;20.580;2023-02-08T08:30:14;1.00;99.90
21759;DHT22;11041;50.854;20.580;2023-02-08T08:32:41;1.00;99.90
21759;DHT22;11041;50.854;20.580;2023-02-08T08:35:09;1.10;99.90
21759;DHT22;11041;50.854;20.580;2023-02-08T08:37:36;1.10;99.90
21759;DHT22;11041;50.854;20.580;2023-02-08T08:40:04;1.00;99.90
21759;DHT22;11041;50.854;20.580;2023-02-08T08:42:33;1.00;99.90
21759;DHT22;11041;50.854;20.580;2023-02-08T08:45:02;1.10;99.90
21759;DHT22;11041;50.854;20.580;2023-02-08T08:47:29;1.00;99.90
21759;DHT22;11041;50.854;20.580;2023-02-08T08:49:55;1.10;99.90
21759;DHT22;11041;50.854;20.580;2023-02-08T08:52:22;1.00;99.90
21759;DHT22;11041;50.854;20.580;2023-02-08T08:54:49;1.10;99.90
21759;DHT22;11041;50.854;20.580;2023-02-08T08:57:16;1.20;99.90
21759;DHT22;11041;50.854;20.580;2023-02-08T08:59:43;1.20;99.90
21759;DHT22;11041;50.854;20.580;2023-02-08T09:02:13;1.20;99.90
21759;DHT22;11041;50.854;20.580;2023-02-08T09:04:40;1.30;99.90
21759;DHT22;11041;50.854;20.580;2023-02-08T09:07:08;1.30;99.90
21759;DHT22;11041;50.854;20.580;2023-02-08T09:09:35;1.20;99.90
21759;DHT22;11041;50.854;20.580;2023-02-08T09:12:03;1.20;99.90
21759;DHT22;11041;50.854;20.580;2023-02-08T09:14:30;1.30;99.90
21759;DHT22;11041;50.854;20.580;2023-02-08T09:16:56;1.40;99.90
21759;DHT22;11041;50.854;20.580;2023-02-08T09:19:23;1.30;99.90
21759;DHT22;11041;50.854;20.580;2023-02-08T09:21:50;1.40;99.90
21759;DHT22;11041;50.854;20.580;2023-02-08T09:24:17;1.40;99.90
21759;DHT22;11041;50.854;20.580;2023-02-08T09:26:44;1.50;99.90
21759;DHT22;11041;50.854;20.580;2023-02-08T09:29:11;1.50;99.90
21759;DHT22;11041;50.854;20.580;2023-02-08T09:31:37;1.60;99.90
21759;DHT22;11041;50.854;20.580;2023-02-08T09:34:05;1.50;99.90
21759;DHT22;11041;50.854;20.580;2023-02-08T09:36:34;1.40;99.90
21759;DHT22;11041;50.854;20.580;2023-02-08T09:39:19;1.40;99.90
21759;DHT22;11041;50.854;20.580;2023-02-08T09:48:30;1.30;99.90
21759;DHT22;11041;50.854;20.580;2023-02-08T09:53:51;1.40;99.90
21759;DHT22;11041;50.854;20.580;2023-02-08T09:56:40;1.30;99.90
21759;DHT22;11041;50.854;20.580;2023-02-08T09:59:25;1.40;99.90
21759;DHT22;11041;50.854;20.580;2023-02-08T10:02:08;1.60;99.90
21759;DHT22;11041;50.854;20.580;2023-02-08T10:05:02;1.80;99.90
21759;DHT22;11041;50.854;20.580;2023-02-08T10:07:35;1.80;99.90
21759;DHT22;11041;50.854;20.580;2023-02-08T10:10:06;1.90;99.90
21759;DHT22;11041;50.854;20.580;2023-02-08T10:12:44;1.80;99.90
21759;DHT22;11041;50.854;20.580;2023-02-08T10:21:37;2.00;99.90
21759;DHT22;11041;50.854;20.580;2023-02-08T10:33:31;1.80;99.90
21759;DHT22;11041;50.854;20.580;2023-02-08T10:36:06;1.70;99.90
21759;DHT22;11041;50.854;20.580;2023-02-08T10:38:40;1.70;99.90
21759;DHT22;11041;50.854;20.580;2023-02-08T10:41:09;1.80;99.90
21759;DHT22;11041;50.854;20.580;2023-02-08T10:43:52;1.60;99.90
21759;DHT22;11041;50.854;20.580;2023-02-08T10:49:07;1.80;99.90
21759;DHT22;11041;50.854;20.580;2023-02-08T10:51:43;1.90;99.90
21759;DHT22;11041;50.854;20.580;2023-02-08T10:54:15;1.80;99.90
21759;DHT22;11041;50.854;20.580;2023-02-08T10:56:54;1.80;99.90
21759;DHT22;11041;50.854;20.580;2023-02-08T10:59:48;1.80;99.90
21759;DHT22;11041;50.854;20.580;2023-02-08T11:02:22;1.90;99.90
21759;DHT22;11041;50.854;20.580;2023-02-08T11:05:06;2.00;99.90
21759;DHT22;11041;50.854;20.580;2023-02-08T11:07:35;1.90;99.90
21759;DHT22;11041;50.854;20.580;2023-02-08T11:13:06;1.70;99.90
21759;DHT22;11041;50.854;20.580;2023-02-08T11:15:54;1.70;99.90
21759;DHT22;11041;50.854;20.580;2023-02-08T11:18:48;1.80;99.90
21759;DHT22;11041;50.854;20.580;2023-02-08T11:21:30;1.90;99.90
21759;DHT22;11041;50.854;20.580;2023-02-08T11:24:16;1.90;99.90
21759;DHT22;11041;50.854;20.580;2023-02-08T11:26:53;1.80;99.90
21759;DHT22;11041;50.854;20.580;2023-02-08T11:29:28;2.00;99.90
21759;DHT22;11041;50.854;20.580;2023-02-08T11:34:36;2.00;99.90
21759;DHT22;11041;50.854;20.580;2023-02-08T11:37:17;1.90;99.90
21759;DHT22;11041;50.854;20.580;2023-02-08T11:39:54;2.00;99.90
21759;DHT22;11041;50.854;20.580;2023-02-08T11:45:02;1.80;99.90
21759;DHT22;11041;50.854;20.580;2023-02-08T11:47:33;1.80;99.90
21759;DHT22;11041;50.854;20.580;2023-02-08T11:50:05;1.60;99.90
21759;DHT22;11041;50.854;20.580;2023-02-08T11:52:39;1.60;99.90
21759;DHT22;11041;50.854;20.580;2023-02-08T12:00:39;1.70;99.90
21759;DHT22;11041;50.854;20.580;2023-02-08T12:03:13;1.70;99.90
21759;DHT22;11041;50.854;20.580;2023-02-08T12:34:48;1.80;99.90
21759;DHT22;11041;50.854;20.580;2023-02-08T12:37:44;1.50;99.90
21759;DHT22;11041;50.854;20.580;2023-02-08T12:46:47;1.50;99.90
21759;DHT22;11041;50.854;20.580;2023-02-08T12:49:31;1.40;99.90
21759;DHT22;11041;50.854;20.580;2023-02-08T13:00:49;1.60;99.90
21759;DHT22;11041;50.854;20.580;2023-02-08T13:03:47;1.40;99.90
21759;DHT22;11041;50.854;20.580;2023-02-08T13:06:24;1.50;99.90
21759;DHT22;11041;50.854;20.580;2023-02-08T13:09:05;1.60;99.90
21759;DHT22;11041;50.854;20.580;2023-02-08T13:11:49;1.50;99.90
21759;DHT22;11041;50.854;20.580;2023-02-08T13:14:34;1.40;99.90
21759;DHT22;11041;50.854;20.580;2023-02-08T13:17:25;1.50;99.90
21759;DHT22;11041;50.854;20.580;2023-02-08T13:20:02;1.50;99.90
21759;DHT22;11041;50.854;20.580;2023-02-08T13:22:42;1.40;99.90
21759;DHT22;11041;50.854;20.580;2023-02-08T13:25:26;1.40;99.90
21759;DHT22;11041;50.854;20.580;2023-02-08T13:28:00;1.40;99.90
21759;DHT22;11041;50.854;20.580;2023-02-08T13:30:31;1.40;99.90
21759;DHT22;11041;50.854;20.580;2023-02-08T13:33:15;1.30;99.90
21759;DHT22;11041;50.854;20.580;2023-02-08T13:35:51;1.40;99.90
21759;DHT22;11041;50.854;20.580;2023-02-08T13:38:27;1.40;99.90
21759;DHT22;11041;50.854;20.580;2023-02-08T13:41:14;1.30;99.90
21759;DHT22;11041;50.854;20.580;2023-02-08T13:43:53;1.30;99.90
21759;DHT22;11041;50.854;20.580;2023-02-08T13:46:25;1.40;99.90
21759;DHT22;11041;50.854;20.580;2023-02-08T13:48:58;1.50;99.90
21759;DHT22;11041;50.854;20.580;2023-02-08T13:56:43;1.40;99.90
21759;DHT22;11041;50.854;20.580;2023-02-08T14:04:47;1.40;99.90
21759;DHT22;11041;50.854;20.580;2023-02-08T14:10:38;1.50;99.90
21759;DHT22;11041;50.854;20.580;2023-02-08T14:13:30;1.40;99.90
21759;DHT22;11041;50.854;20.580;2023-02-08T14:16:27;1.40;99.90
21759;DHT22;11041;50.854;20.580;2023-02-08T14:19:02;1.40;99.90
21759;DHT22;11041;50.854;20.580;2023-02-08T14:24:46;1.40;99.90
21759;DHT22;11041;50.854;20.580;2023-02-08T14:27:27;1.40;99.90
21759;DHT22;11041;50.854;20.580;2023-02-08T14:30:07;1.40;99.90
21759;DHT22;11041;50.854;20.580;2023-02-08T14:35:40;1.50;99.90
21759;DHT22;11041;50.854;20.580;2023-02-08T14:45:55;1.40;99.90
21759;DHT22;11041;50.854;20.580;2023-02-08T14:53:48;1.30;99.90
21759;DHT22;11041;50.854;20.580;2023-02-08T14:56:31;1.10;99.90
21759;DHT22;11041;50.854;20.580;2023-02-08T14:59:12;1.00;99.90
21759;DHT22;11041;50.854;20.580;2023-02-08T15:01:51;1.00;99.90
21759;DHT22;11041;50.854;20.580;2023-02-08T15:04:25;0.90;99.90
21759;DHT22;11041;50.854;20.580;2023-02-08T15:07:07;0.90;99.90
21759;DHT22;11041;50.854;20.580;2023-02-08T15:09:45;0.90;99.90
21759;DHT22;11041;50.854;20.580;2023-02-08T15:12:29;0.80;99.90
21759;DHT22;11041;50.854;20.580;2023-02-08T15:15:02;0.70;99.90
21759;DHT22;11041;50.854;20.580;2023-02-08T15:17:38;0.80;99.90
21759;DHT22;11041;50.854;20.580;2023-02-08T15:23:18;0.60;99.90
21759;DHT22;11041;50.854;20.580;2023-02-08T15:34:53;0.20;99.90
21759;DHT22;11041;50.854;20.580;2023-02-08T15:38:30;0.50;99.90
21759;DHT22;11041;50.854;20.580;2023-02-08T15:42:02;0.00;99.90
21759;DHT22;11041;50.854;20.580;2023-02-08T15:44:44;0.00;99.90
21759;DHT22;11041;50.854;20.580;2023-02-08T15:47:29;0.30;99.90
21759;DHT22;11041;50.854;20.580;2023-02-08T15:49:58;-0.10;99.90
21759;DHT22;11041;50.854;20.580;2023-02-08T15:52:29;-0.10;99.90
21759;DHT22;11041;50.854;20.580;2023-02-08T15:54:58;-0.20;99.90
21759;DHT22;11041;50.854;20.580;2023-02-08T15:57:36;-0.30;99.90
21759;DHT22;11041;50.854;20.580;2023-02-08T16:00:20;-0.30;99.90
21759;DHT22;11041;50.854;20.580;2023-02-08T16:02:56;-0.30;99.90
21759;DHT22;11041;50.854;20.580;2023-02-08T16:05:30;-0.40;99.90
21759;DHT22;11041;50.854;20.580;2023-02-08T16:07:59;-0.50;99.90
21759;DHT22;11041;50.854;20.580;2023-02-08T16:10:34;-0.50;99.90
21759;DHT22;11041;50.854;20.580;2023-02-08T16:13:29;-0.50;99.90
21759;DHT22;11041;50.854;20.580;2023-02-08T16:16:19;-0.60;99.90
21759;DHT22;11041;50.854;20.580;2023-02-08T16:21:34;-0.90;99.90
21759;DHT22;11041;50.854;20.580;2023-02-08T16:29:54;-1.00;99.90
21759;DHT22;11041;50.854;20.580;2023-02-08T16:32:32;-1.10;99.90
21759;DHT22;11041;50.854;20.580;2023-02-08T16:35:39;-1.20;99.90
21759;DHT22;11041;50.854;20.580;2023-02-08T16:38:07;-1.30;99.90
21759;DHT22;11041;50.854;20.580;2023-02-08T16:40:45;-1.20;99.90
21759;DHT22;11041;50.854;20.580;2023-02-08T16:43:30;-1.30;99.90
21759;DHT22;11041;50.854;20.580;2023-02-08T16:46:17;-1.40;99.90
21759;DHT22;11041;50.854;20.580;2023-02-08T16:48:52;-1.40;99.90
21759;DHT22;11041;50.854;20.580;2023-02-08T16:51:28;-1.40;99.90
21759;DHT22;11041;50.854;20.580;2023-02-08T16:54:06;-1.40;99.90
21759;DHT22;11041;50.854;20.580;2023-02-08T16:56:36;-2.00;99.90
21759;DHT22;11041;50.854;20.580;2023-02-08T16:59:04;-1.50;99.90
21759;DHT22;11041;50.854;20.580;2023-02-08T17:01:31;-1.50;99.90
21759;DHT22;11041;50.854;20.580;2023-02-08T17:03:58;-1.50;99.90
21759;DHT22;11041;50.854;20.580;2023-02-08T17:06:32;-1.50;99.90
21759;DHT22;11041;50.854;20.580;2023-02-08T17:09:02;-1.50;99.90
21759;DHT22;11041;50.854;20.580;2023-02-08T17:11:30;-1.50;99.90
21759;DHT22;11041;50.854;20.580;2023-02-08T17:13:57;-1.50;99.90
21759;DHT22;11041;50.854;20.580;2023-02-08T17:16:26;-1.50;99.90
21759;DHT22;11041;50.854;20.580;2023-02-08T17:18:55;-1.60;99.90
21759;DHT22;11041;50.854;20.580;2023-02-08T17:21:23;-1.60;99.90
21759;DHT22;11041;50.854;20.580;2023-02-08T17:23:50;-1.60;99.90
21759;DHT22;11041;50.854;20.580;2023-02-08T17:26:28;-1.70;99.90
21759;DHT22;11041;50.854;20.580;2023-02-08T17:28:59;-1.70;99.90
21759;DHT22;11041;50.854;20.580;2023-02-08T17:31:26;-1.70;99.90
21759;DHT22;11041;50.854;20.580;2023-02-08T17:33:56;-1.70;99.90
21759;DHT22;11041;50.854;20.580;2023-02-08T17:36:30;-1.70;99.90
21759;DHT22;11041;50.854;20.580;2023-02-08T17:38:58;-1.70;99.90
21759;DHT22;11041;50.854;20.580;2023-02-08T17:41:26;-0.50;99.90
21759;DHT22;11041;50.854;20.580;2023-02-08T17:43:55;-1.80;99.90
21759;DHT22;11041;50.854;20.580;2023-02-08T17:46:24;-1.90;99.90
21759;DHT22;11041;50.854;20.580;2023-02-08T17:48:53;-1.90;99.90
21759;DHT22;11041;50.854;20.580;2023-02-08T17:51:22;-1.90;99.90
21759;DHT22;11041;50.854;20.580;2023-02-08T17:53:50;-2.00;99.90
21759;DHT22;11041;50.854;20.580;2023-02-08T17:56:21;-2.00;99.90
21759;DHT22;11041;50.854;20.580;2023-02-08T17:58:50;-1.90;99.90
21759;DHT22;11041;50.854;20.580;2023-02-08T18:01:24;-1.50;99.90
21759;DHT22;11041;50.854;20.580;2023-02-08T18:03:53;-1.90;99.90
21759;DHT22;11041;50.854;20.580;2023-02-08T18:06:19;-2.00;99.90
21759;DHT22;11041;50.854;20.580;2023-02-08T18:08:52;-2.10;99.90
21759;DHT22;11041;50.854;20.580;2023-02-08T18:11:20;-2.10;99.90
21759;DHT22;11041;50.854;20.580;2023-02-08T18:13:50;-2.50;99.90
21759;DHT22;11041;50.854;20.580;2023-02-08T18:18:48;-2.50;99.90
21759;DHT22;11041;50.854;20.580;2023-02-08T18:21:21;-2.60;99.90
21759;DHT22;11041;50.854;20.580;2023-02-08T18:23:50;-2.60;99.90
21759;DHT22;11041;50.854;20.580;2023-02-08T18:26:24;-2.50;99.90
21759;DHT22;11041;50.854;20.580;2023-02-08T18:31:19;-2.80;99.90
21759;DHT22;11041;50.854;20.580;2023-02-08T18:33:48;-2.70;99.90
21759;DHT22;11041;50.854;20.580;2023-02-08T18:36:15;-2.70;99.90
21759;DHT22;11041;50.854;20.580;2023-02-08T18:38:44;-2.60;99.90
21759;DHT22;11041;50.854;20.580;2023-02-08T18:41:18;-2.70;99.90
21759;DHT22;11041;50.854;20.580;2023-02-08T18:46:21;-3.00;99.90
21759;DHT22;11041;50.854;20.580;2023-02-08T18:48:50;-3.10;99.90
21759;DHT22;11041;50.854;20.580;2023-02-08T18:51:22;-3.10;99.90
21759;DHT22;11041;50.854;20.580;2023-02-08T18:53:52;-3.10;99.90
21759;DHT22;11041;50.854;20.580;2023-02-08T18:56:21;-3.10;99.90
21759;DHT22;11041;50.854;20.580;2023-02-08T18:58:52;-3.50;99.90
21759;DHT22;11041;50.854;20.580;2023-02-08T19:01:22;-3.60;99.90
21759;DHT22;11041;50.854;20.580;2023-02-08T19:06:22;-3.40;99.90
21759;DHT22;11041;50.854;20.580;2023-02-08T19:08:52;-3.60;99.90
21759;DHT22;11041;50.854;20.580;2023-02-08T19:11:23;-3.30;99.90
21759;DHT22;11041;50.854;20.580;2023-02-08T19:13:54;-3.40;99.90
21759;DHT22;11041;50.854;20.580;2023-02-08T19:16:23;-3.40;99.90
21759;DHT22;11041;50.854;20.580;2023-02-08T19:18:53;-3.30;99.90
21759;DHT22;11041;50.854;20.580;2023-02-08T19:21:22;-3.20;99.90
21759;DHT22;11041;50.854;20.580;2023-02-08T19:23:50;-3.20;99.90
21759;DHT22;11041;50.854;20.580;2023-02-08T19:26:23;-3.10;99.90
21759;DHT22;11041;50.854;20.580;2023-02-08T19:28:53;-2.20;99.90